createdAt,value
2017-05-16T00:00:29.095Z,14.03
2017-05-16T00:01:30.938Z,13.97
2017-05-16T00:02:32.778Z,13.89
2017-05-16T00:03:34.624Z,13.91
2017-05-16T00:04:36.666Z,13.92
2017-05-16T00:05:38.512Z,13.84
2017-05-16T00:06:40.352Z,13.91
2017-05-16T00:07:42.198Z,13.79
2017-05-16T00:08:44.045Z,13.85
2017-05-16T00:09:45.989Z,13.85
2017-05-16T00:10:47.830Z,13.81
2017-05-16T00:11:49.670Z,13.79
2017-05-16T00:12:51.516Z,13.82
2017-05-16T00:13:53.355Z,13.85
2017-05-16T00:14:55.409Z,13.87
2017-05-16T00:15:57.243Z,13.79
2017-05-16T00:16:59.090Z,13.87
2017-05-16T00:18:00.933Z,13.78
2017-05-16T00:19:02.773Z,13.82
2017-05-16T00:20:04.615Z,13.73
2017-05-16T00:21:06.463Z,13.75
2017-05-16T00:22:08.303Z,13.77
2017-05-16T00:23:10.142Z,13.73
2017-05-16T00:24:11.979Z,13.71
2017-05-16T00:25:14.103Z,13.70
2017-05-16T00:26:15.938Z,13.70
2017-05-16T00:27:17.757Z,13.75
2017-05-16T00:28:19.594Z,13.69
2017-05-16T00:29:21.416Z,13.70
2017-05-16T00:30:23.327Z,13.66
2017-05-16T00:31:25.173Z,13.66
2017-05-16T00:32:27.018Z,13.64
2017-05-16T00:33:28.858Z,13.63
2017-05-16T00:34:30.700Z,13.62
2017-05-16T00:35:32.768Z,13.55
2017-05-16T00:36:34.608Z,13.62
2017-05-16T00:37:36.448Z,13.57
2017-05-16T00:38:38.293Z,13.62
2017-05-16T00:39:40.110Z,13.59
2017-05-16T00:40:41.946Z,13.70
2017-05-16T00:41:43.760Z,13.64
2017-05-16T00:42:45.578Z,13.59
2017-05-16T00:43:47.425Z,13.59
2017-05-16T00:44:49.263Z,13.55
2017-05-16T00:45:51.279Z,13.66
2017-05-16T00:46:53.100Z,13.51
2017-05-16T00:47:54.936Z,13.49
2017-05-16T00:48:56.780Z,13.52
2017-05-16T00:49:58.585Z,13.54
2017-05-16T00:51:00.506Z,13.51
2017-05-16T00:52:02.323Z,13.48
2017-05-16T00:53:04.162Z,13.45
2017-05-16T00:54:06.007Z,13.52
2017-05-16T00:55:07.847Z,13.38
2017-05-16T00:56:09.952Z,13.38
2017-05-16T00:57:11.782Z,13.32
2017-05-16T00:58:13.618Z,13.36
2017-05-16T00:59:15.455Z,13.39
2017-05-16T01:00:17.275Z,13.38
2017-05-16T01:01:19.144Z,13.39
2017-05-16T01:02:20.982Z,13.33
2017-05-16T01:03:22.802Z,13.36
2017-05-16T01:04:24.642Z,13.39
2017-05-16T01:05:26.485Z,13.28
2017-05-16T01:06:28.522Z,13.25
2017-05-16T01:07:30.367Z,13.23
2017-05-16T01:08:32.213Z,13.22
2017-05-16T01:09:34.050Z,13.19
2017-05-16T01:10:35.869Z,13.26
2017-05-16T01:11:37.812Z,13.15
2017-05-16T01:12:39.622Z,13.19
2017-05-16T01:13:41.468Z,13.22
2017-05-16T01:14:43.310Z,13.17
2017-05-16T01:15:45.122Z,13.20
2017-05-16T01:16:47.145Z,13.14
2017-05-16T01:17:48.985Z,13.15
2017-05-16T01:18:50.827Z,13.25
2017-05-16T01:19:52.661Z,13.15
2017-05-16T01:20:54.505Z,13.12
2017-05-16T01:21:56.546Z,13.19
2017-05-16T01:22:58.363Z,13.12
2017-05-16T01:24:00.181Z,13.14
2017-05-16T01:25:02.022Z,13.11
2017-05-16T01:26:03.859Z,13.07
2017-05-16T01:27:05.726Z,13.15
2017-05-16T01:28:07.544Z,13.04
2017-05-16T01:29:09.389Z,13.04
2017-05-16T01:30:11.204Z,13.15
2017-05-16T01:31:13.047Z,13.12
2017-05-16T01:32:15.241Z,13.11
2017-05-16T01:33:17.080Z,13.11
2017-05-16T01:34:18.920Z,13.10
2017-05-16T01:35:20.740Z,13.00
2017-05-16T01:36:22.552Z,12.97
2017-05-16T01:37:24.401Z,13.05
2017-05-16T01:38:26.236Z,13.05
2017-05-16T01:39:28.052Z,12.96
2017-05-16T01:40:29.896Z,12.95
2017-05-16T01:41:31.705Z,12.96
2017-05-16T01:42:33.823Z,13.00
2017-05-16T01:43:35.642Z,12.92
2017-05-16T01:44:37.496Z,12.96
2017-05-16T01:45:39.319Z,13.03
2017-05-16T01:46:41.130Z,12.89
2017-05-16T01:47:42.977Z,12.90
2017-05-16T01:48:44.814Z,12.93
2017-05-16T01:49:46.631Z,12.82
2017-05-16T01:50:48.466Z,12.87
2017-05-16T01:51:50.285Z,12.75
2017-05-16T01:52:52.428Z,12.79
2017-05-16T01:53:54.264Z,12.83
2017-05-16T01:54:56.081Z,12.75
2017-05-16T01:55:57.901Z,12.85
2017-05-16T01:56:59.739Z,12.77
2017-05-16T01:58:01.558Z,12.74
2017-05-16T01:59:03.372Z,12.72
2017-05-16T02:00:05.213Z,12.64
2017-05-16T02:01:07.055Z,12.70
2017-05-16T02:02:08.902Z,12.60
2017-05-16T02:03:10.938Z,12.67
2017-05-16T02:04:12.755Z,12.64
2017-05-16T02:05:14.596Z,12.71
2017-05-16T02:06:16.437Z,12.60
2017-05-16T02:07:18.250Z,12.64
2017-05-16T02:08:20.092Z,12.53
2017-05-16T02:09:21.912Z,12.52
2017-05-16T02:10:23.753Z,12.52
2017-05-16T02:11:25.597Z,12.54
2017-05-16T02:12:27.437Z,12.49
2017-05-16T02:13:29.574Z,12.39
2017-05-16T02:14:31.399Z,12.38
2017-05-16T02:15:33.229Z,12.38
2017-05-16T02:16:35.050Z,12.32
2017-05-16T02:17:36.867Z,12.32
2017-05-16T02:18:38.708Z,12.35
2017-05-16T02:19:40.552Z,12.29
2017-05-16T02:20:42.373Z,12.27
2017-05-16T02:21:44.201Z,12.24
2017-05-16T02:22:46.047Z,12.32
2017-05-16T02:23:48.189Z,12.19
2017-05-16T02:24:50.027Z,12.32
2017-05-16T02:25:51.842Z,12.35
2017-05-16T02:26:53.686Z,12.28
2017-05-16T02:27:55.529Z,12.29
2017-05-16T02:28:57.368Z,12.28
2017-05-16T02:29:59.186Z,12.23
2017-05-16T02:31:01.030Z,12.29
2017-05-16T02:32:02.866Z,12.17
2017-05-16T02:33:04.708Z,12.24
2017-05-16T02:34:06.847Z,12.13
2017-05-16T02:35:08.665Z,12.27
2017-05-16T02:36:10.505Z,12.21
2017-05-16T02:37:12.317Z,12.24
2017-05-16T02:38:14.136Z,12.17
2017-05-16T02:39:15.977Z,12.16
2017-05-16T02:40:17.817Z,12.17
2017-05-16T02:41:19.633Z,12.13
2017-05-16T02:42:21.474Z,12.07
2017-05-16T02:43:23.326Z,12.20
2017-05-16T02:44:25.363Z,12.24
2017-05-16T02:45:27.209Z,12.16
2017-05-16T02:46:29.057Z,12.17
2017-05-16T02:47:30.893Z,12.13
2017-05-16T02:48:32.709Z,12.19
2017-05-16T02:49:34.557Z,12.12
2017-05-16T02:50:36.396Z,12.04
2017-05-16T02:51:38.237Z,12.09
2017-05-16T02:52:40.085Z,12.01
2017-05-16T02:53:41.925Z,12.05
2017-05-16T02:54:44.069Z,12.23
2017-05-16T02:55:45.907Z,12.05
2017-05-16T02:56:47.721Z,12.13
2017-05-16T02:57:49.543Z,12.05
2017-05-16T02:58:51.359Z,12.16
2017-05-16T02:59:53.203Z,12.10
2017-05-16T03:00:55.041Z,12.20
2017-05-16T03:01:56.862Z,12.07
2017-05-16T03:02:58.706Z,12.14
2017-05-16T03:04:00.524Z,12.12
2017-05-16T03:05:02.367Z,12.07
2017-05-16T03:06:04.187Z,12.12
2017-05-16T03:07:06.034Z,12.12
2017-05-16T03:08:07.924Z,12.04
2017-05-16T03:09:09.722Z,12.05
2017-05-16T03:10:11.589Z,12.14
2017-05-16T03:11:13.434Z,12.07
2017-05-16T03:12:15.280Z,12.12
2017-05-16T03:13:17.121Z,12.07
2017-05-16T03:14:18.947Z,12.05
2017-05-16T03:15:21.192Z,12.12
2017-05-16T03:16:23.044Z,12.10
2017-05-16T03:17:24.882Z,12.14
2017-05-16T03:18:26.727Z,12.09
2017-05-16T03:19:28.578Z,12.17
2017-05-16T03:20:30.424Z,12.14
2017-05-16T03:21:32.263Z,12.09
2017-05-16T03:22:34.104Z,12.20
2017-05-16T03:23:35.948Z,12.12
2017-05-16T03:24:37.763Z,12.13
2017-05-16T03:25:39.812Z,12.20
2017-05-16T03:26:41.658Z,12.05
2017-05-16T03:27:43.502Z,12.21
2017-05-16T03:28:45.319Z,12.24
2017-05-16T03:29:47.168Z,12.29
2017-05-16T03:30:49.008Z,12.29
2017-05-16T03:31:50.831Z,12.31
2017-05-16T03:32:52.675Z,12.21
2017-05-16T03:33:54.495Z,12.27
2017-05-16T03:34:56.334Z,12.16
2017-05-16T03:35:58.660Z,12.14
2017-05-16T03:37:00.485Z,12.20
2017-05-16T03:38:02.322Z,12.31
2017-05-16T03:39:04.152Z,12.34
2017-05-16T03:40:05.989Z,12.45
2017-05-16T03:41:07.814Z,12.41
2017-05-16T03:42:09.633Z,12.42
2017-05-16T03:43:11.452Z,12.53
2017-05-16T03:44:13.300Z,12.56
2017-05-16T03:45:15.146Z,12.59
2017-05-16T03:46:17.012Z,12.68
2017-05-16T03:47:18.830Z,12.64
2017-05-16T03:48:20.653Z,12.72
2017-05-16T03:49:22.496Z,12.71
2017-05-16T03:50:24.346Z,12.75
2017-05-16T03:51:26.492Z,12.77
2017-05-16T03:52:28.335Z,12.78
2017-05-16T03:53:30.189Z,12.77
2017-05-16T03:54:32.041Z,12.87
2017-05-16T03:55:33.889Z,12.82
2017-05-16T03:56:35.712Z,12.93
2017-05-16T03:57:37.552Z,12.90
2017-05-16T03:58:39.403Z,12.96
2017-05-16T03:59:41.255Z,13.11
2017-05-16T04:00:43.099Z,13.22
2017-05-16T04:01:45.217Z,13.28
2017-05-16T04:02:47.035Z,13.36
2017-05-16T04:03:48.853Z,13.45
2017-05-16T04:04:50.674Z,13.66
2017-05-16T04:05:52.526Z,13.69
2017-05-16T04:06:54.375Z,13.67
2017-05-16T04:07:56.215Z,13.92
2017-05-16T04:08:58.042Z,14.07
2017-05-16T04:09:59.855Z,14.29
2017-05-16T04:11:01.676Z,14.54
2017-05-16T04:12:03.802Z,14.64
2017-05-16T04:13:05.646Z,14.80
2017-05-16T04:14:07.492Z,14.94
2017-05-16T04:15:09.316Z,15.23
2017-05-16T04:16:11.160Z,15.32
2017-05-16T04:17:13.023Z,15.59
2017-05-16T04:18:14.863Z,15.53
2017-05-16T04:19:16.713Z,15.68
2017-05-16T04:20:18.538Z,15.69
2017-05-16T04:21:20.352Z,15.72
2017-05-16T04:22:22.502Z,15.90
2017-05-16T04:23:24.329Z,15.92
2017-05-16T04:24:26.179Z,15.96
2017-05-16T04:25:28.025Z,15.97
2017-05-16T04:26:29.851Z,15.90
2017-05-16T04:27:31.890Z,15.94
2017-05-16T04:28:33.721Z,16.02
2017-05-16T04:29:35.565Z,15.94
2017-05-16T04:30:37.388Z,15.90
2017-05-16T04:31:39.237Z,16.04
2017-05-16T04:32:41.190Z,16.04
2017-05-16T04:33:43.042Z,16.23
2017-05-16T04:34:44.884Z,16.42
2017-05-16T04:35:46.734Z,16.50
2017-05-16T04:36:48.589Z,16.78
2017-05-16T04:37:50.437Z,17.00
2017-05-16T04:38:52.284Z,17.33
2017-05-16T04:39:54.109Z,17.66
2017-05-16T04:40:55.934Z,17.89
2017-05-16T04:41:57.760Z,18.14
2017-05-16T04:42:59.811Z,18.41
2017-05-16T04:44:01.664Z,18.63
2017-05-16T04:45:03.513Z,18.76
2017-05-16T04:46:05.363Z,18.92
2017-05-16T04:47:07.210Z,19.10
2017-05-16T04:48:09.088Z,19.32
2017-05-16T04:49:10.920Z,19.55
2017-05-16T04:50:12.766Z,19.73
2017-05-16T04:51:14.595Z,19.88
2017-05-16T04:52:16.414Z,19.96
2017-05-16T04:53:18.344Z,20.10
2017-05-16T04:54:20.197Z,20.21
2017-05-16T04:55:22.048Z,20.31
2017-05-16T04:56:23.902Z,20.42
2017-05-16T04:57:25.734Z,20.57
2017-05-16T04:58:27.587Z,20.59
2017-05-16T04:59:29.413Z,20.55
2017-05-16T05:00:31.242Z,20.69
2017-05-16T05:01:33.090Z,20.84
2017-05-16T05:02:34.948Z,20.82
2017-05-16T05:03:36.801Z,20.85
2017-05-16T05:04:38.647Z,20.84
2017-05-16T05:05:40.481Z,20.61
2017-05-16T05:06:42.330Z,20.41
2017-05-16T05:07:44.184Z,20.23
2017-05-16T05:08:46.208Z,20.13
2017-05-16T05:09:48.045Z,19.92
2017-05-16T05:10:49.889Z,19.91
2017-05-16T05:11:51.743Z,19.81
2017-05-16T05:12:53.596Z,19.73
2017-05-16T05:13:55.554Z,19.74
2017-05-16T05:14:57.406Z,19.77
2017-05-16T05:15:59.258Z,19.73
2017-05-16T05:17:01.111Z,19.65
2017-05-16T05:18:02.936Z,19.58
2017-05-16T05:19:04.984Z,19.56
2017-05-16T05:20:06.817Z,19.55
2017-05-16T05:21:08.653Z,19.47
2017-05-16T05:22:10.466Z,19.47
2017-05-16T05:23:12.320Z,19.40
2017-05-16T05:24:14.167Z,19.37
2017-05-16T05:25:15.990Z,19.44
2017-05-16T05:26:17.813Z,19.48
2017-05-16T05:27:19.664Z,19.36
2017-05-16T05:28:21.487Z,19.28
2017-05-16T05:29:23.345Z,19.22
2017-05-16T05:30:25.236Z,19.04
2017-05-16T05:31:27.042Z,19.06
2017-05-16T05:32:28.892Z,18.73
2017-05-16T05:33:30.743Z,18.85
2017-05-16T05:34:32.898Z,18.78
2017-05-16T05:35:34.750Z,18.69
2017-05-16T05:36:36.579Z,18.70
2017-05-16T05:37:38.402Z,18.67
2017-05-16T05:38:40.252Z,18.62
2017-05-16T05:39:42.199Z,18.57
2017-05-16T05:40:44.022Z,18.41
2017-05-16T05:41:45.851Z,18.39
2017-05-16T05:42:47.696Z,18.25
2017-05-16T05:43:49.521Z,18.17
2017-05-16T05:44:51.382Z,18.17
2017-05-16T05:45:53.219Z,18.07
2017-05-16T05:46:55.045Z,18.05
2017-05-16T05:47:56.868Z,17.99
2017-05-16T05:48:58.693Z,18.08
2017-05-16T05:50:00.562Z,17.97
2017-05-16T05:51:02.416Z,17.92
2017-05-16T05:52:04.262Z,17.95
2017-05-16T05:53:06.092Z,17.99
2017-05-16T05:54:07.941Z,17.92
2017-05-16T05:55:10.157Z,17.95
2017-05-16T05:56:11.983Z,18.05
2017-05-16T05:57:13.837Z,18.20
2017-05-16T05:58:15.685Z,18.12
2017-05-16T05:59:17.509Z,18.21
2017-05-16T06:00:19.361Z,18.15
2017-05-16T06:01:21.203Z,18.18
2017-05-16T06:02:23.051Z,18.11
2017-05-16T06:03:24.878Z,18.17
2017-05-16T06:04:26.731Z,18.23
2017-05-16T06:05:28.677Z,18.17
2017-05-16T06:06:30.527Z,18.25
2017-05-16T06:07:32.381Z,18.12
2017-05-16T06:08:34.233Z,18.18
2017-05-16T06:09:36.085Z,18.11
2017-05-16T06:10:38.135Z,18.12
2017-05-16T06:11:39.987Z,18.21
2017-05-16T06:12:41.837Z,18.25
2017-05-16T06:13:43.680Z,18.29
2017-05-16T06:14:45.508Z,18.33
2017-05-16T06:15:47.359Z,18.33
2017-05-16T06:16:49.182Z,18.36
2017-05-16T06:17:51.005Z,18.45
2017-05-16T06:18:52.831Z,18.41
2017-05-16T06:19:54.658Z,18.39
2017-05-16T06:20:56.537Z,18.45
2017-05-16T06:21:58.386Z,18.47
2017-05-16T06:23:00.212Z,18.42
2017-05-16T06:24:02.055Z,18.48
2017-05-16T06:25:03.897Z,18.45
2017-05-16T06:26:05.931Z,18.50
2017-05-16T06:27:07.786Z,18.52
2017-05-16T06:28:09.629Z,18.65
2017-05-16T06:29:11.454Z,18.63
2017-05-16T06:30:13.281Z,18.69
2017-05-16T06:31:15.130Z,18.63
2017-05-16T06:32:16.980Z,18.76
2017-05-16T06:33:18.832Z,18.80
2017-05-16T06:34:20.681Z,18.98
2017-05-16T06:35:22.531Z,19.00
2017-05-16T06:36:24.532Z,18.94
2017-05-16T06:37:26.344Z,18.94
2017-05-16T06:38:28.167Z,18.91
2017-05-16T06:39:29.994Z,18.87
2017-05-16T06:40:31.821Z,18.76
2017-05-16T06:41:33.671Z,18.75
2017-05-16T06:42:35.495Z,18.66
2017-05-16T06:43:37.324Z,18.67
2017-05-16T06:44:39.138Z,18.69
2017-05-16T06:45:40.970Z,18.72
2017-05-16T06:46:42.819Z,18.80
2017-05-16T06:47:44.671Z,18.85
2017-05-16T06:48:46.521Z,18.88
2017-05-16T06:49:48.350Z,18.90
2017-05-16T06:50:50.175Z,19.04
2017-05-16T06:51:52.302Z,19.07
2017-05-16T06:52:54.155Z,19.14
2017-05-16T06:53:56.001Z,19.11
2017-05-16T06:54:57.855Z,19.28
2017-05-16T06:55:59.675Z,19.37
2017-05-16T06:57:01.558Z,19.31
2017-05-16T06:58:03.378Z,19.39
2017-05-16T06:59:05.198Z,19.31
2017-05-16T07:00:07.051Z,19.25
2017-05-16T07:01:08.905Z,19.16
2017-05-16T07:02:10.752Z,19.18
2017-05-16T07:03:12.607Z,19.21
2017-05-16T07:04:14.431Z,19.22
2017-05-16T07:05:16.260Z,19.29
2017-05-16T07:06:18.083Z,19.36
2017-05-16T07:07:23.161Z,19.43
2017-05-16T07:08:24.987Z,19.56
2017-05-16T07:09:26.846Z,19.54
2017-05-16T07:10:28.693Z,19.48
2017-05-16T07:11:30.519Z,19.33
2017-05-16T07:12:32.476Z,19.33
2017-05-16T07:13:34.323Z,19.31
2017-05-16T07:14:36.151Z,19.23
2017-05-16T07:15:38.005Z,19.19
2017-05-16T07:16:39.859Z,19.08
2017-05-16T07:17:41.899Z,19.18
2017-05-16T07:18:43.731Z,19.13
2017-05-16T07:19:45.555Z,19.16
2017-05-16T07:20:47.406Z,19.08
2017-05-16T07:21:49.257Z,19.19
2017-05-16T07:22:51.108Z,19.07
2017-05-16T07:23:52.936Z,19.19
2017-05-16T07:24:54.783Z,19.08
2017-05-16T07:25:56.610Z,19.18
2017-05-16T07:26:58.464Z,19.28
2017-05-16T07:28:00.313Z,19.26
2017-05-16T07:29:02.165Z,19.31
2017-05-16T07:30:04.016Z,19.31
2017-05-16T07:31:05.847Z,19.36
2017-05-16T07:32:07.700Z,19.41
2017-05-16T07:33:09.548Z,19.39
2017-05-16T07:34:11.372Z,19.44
2017-05-16T07:35:13.197Z,19.44
2017-05-16T07:36:15.049Z,19.50
2017-05-16T07:37:16.871Z,19.71
2017-05-16T07:38:18.749Z,19.80
2017-05-16T07:39:20.602Z,19.99
2017-05-16T07:40:22.454Z,20.11
2017-05-16T07:41:24.303Z,20.13
2017-05-16T07:42:26.155Z,20.17
2017-05-16T07:43:28.313Z,20.23
2017-05-16T07:44:30.163Z,20.31
2017-05-16T07:45:32.017Z,20.28
2017-05-16T07:46:33.867Z,20.50
2017-05-16T07:47:35.720Z,20.55
2017-05-16T07:48:37.586Z,20.58
2017-05-16T07:49:39.415Z,20.72
2017-05-16T07:50:41.245Z,20.84
2017-05-16T07:51:43.101Z,20.80
2017-05-16T07:52:44.927Z,20.85
2017-05-16T07:53:46.832Z,20.98
2017-05-16T07:54:48.682Z,20.85
2017-05-16T07:55:50.536Z,20.85
2017-05-16T07:56:52.363Z,20.72
2017-05-16T07:57:54.193Z,20.69
2017-05-16T07:58:56.499Z,20.73
2017-05-16T07:59:58.327Z,20.61
2017-05-16T08:01:00.171Z,20.57
2017-05-16T08:02:02.006Z,20.70
2017-05-16T08:03:03.867Z,20.80
2017-05-16T08:04:06.020Z,20.72
2017-05-16T08:05:07.879Z,20.70
2017-05-16T08:06:09.724Z,20.70
2017-05-16T08:07:11.583Z,20.94
2017-05-16T08:08:13.435Z,21.07
2017-05-16T08:09:15.314Z,21.07
2017-05-16T08:10:17.169Z,21.04
2017-05-16T08:11:19.020Z,20.89
2017-05-16T08:12:20.874Z,20.88
2017-05-16T08:13:22.709Z,20.91
2017-05-16T08:14:24.663Z,20.99
2017-05-16T08:15:26.498Z,21.09
2017-05-16T08:16:28.350Z,21.17
2017-05-16T08:17:30.180Z,21.27
2017-05-16T08:18:32.010Z,21.35
2017-05-16T08:19:34.041Z,21.49
2017-05-16T08:20:35.870Z,21.49
2017-05-16T08:21:37.723Z,21.49
2017-05-16T08:22:39.551Z,21.49
2017-05-16T08:23:41.384Z,21.46
2017-05-16T08:24:43.230Z,21.56
2017-05-16T08:25:45.063Z,21.47
2017-05-16T08:26:46.895Z,21.69
2017-05-16T08:27:48.720Z,21.79
2017-05-16T08:28:50.549Z,21.90
2017-05-16T08:29:52.431Z,21.99
2017-05-16T08:30:54.291Z,21.98
2017-05-16T08:31:56.147Z,21.90
2017-05-16T08:32:58.005Z,21.98
2017-05-16T08:33:59.863Z,21.91
2017-05-16T08:35:01.737Z,21.83
2017-05-16T08:36:03.593Z,21.77
2017-05-16T08:37:05.447Z,21.65
2017-05-16T08:38:07.275Z,21.62
2017-05-16T08:39:09.131Z,21.65
2017-05-16T08:40:11.009Z,21.59
2017-05-16T08:41:12.834Z,21.65
2017-05-16T08:42:14.670Z,21.74
2017-05-16T08:43:16.521Z,21.75
2017-05-16T08:44:18.368Z,21.67
2017-05-16T08:45:20.251Z,21.58
2017-05-16T08:46:22.104Z,21.47
2017-05-16T08:47:23.957Z,21.40
2017-05-16T08:48:25.787Z,21.27
2017-05-16T08:49:27.641Z,21.17
2017-05-16T08:50:29.519Z,21.07
2017-05-16T08:51:31.349Z,21.01
2017-05-16T08:52:33.175Z,20.91
2017-05-16T08:53:35.029Z,20.85
2017-05-16T08:54:36.883Z,20.82
2017-05-16T08:55:38.836Z,20.94
2017-05-16T08:56:40.695Z,20.79
2017-05-16T08:57:42.546Z,20.88
2017-05-16T08:58:44.400Z,20.88
2017-05-16T08:59:46.316Z,20.70
2017-05-16T09:00:48.430Z,20.70
2017-05-16T09:01:50.257Z,20.73
2017-05-16T09:02:52.085Z,20.82
2017-05-16T09:03:53.911Z,20.84
2017-05-16T09:04:55.743Z,20.94
2017-05-16T09:05:57.621Z,20.98
2017-05-16T09:06:59.453Z,21.09
2017-05-16T09:08:01.276Z,21.29
2017-05-16T09:09:03.113Z,21.28
2017-05-16T09:10:04.966Z,21.53
2017-05-16T09:11:06.817Z,21.62
2017-05-16T09:12:08.646Z,21.75
2017-05-16T09:13:10.478Z,21.90
2017-05-16T09:14:12.336Z,21.98
2017-05-16T09:15:14.180Z,22.02
2017-05-16T09:16:16.210Z,22.00
2017-05-16T09:17:18.039Z,22.02
2017-05-16T09:18:19.875Z,22.03
2017-05-16T09:19:21.726Z,22.02
2017-05-16T09:20:23.587Z,22.09
2017-05-16T09:21:25.442Z,22.03
2017-05-16T09:22:27.297Z,21.96
2017-05-16T09:23:29.154Z,21.82
2017-05-16T09:24:31.011Z,21.75
2017-05-16T09:25:32.859Z,21.75
2017-05-16T09:26:35.090Z,21.80
2017-05-16T09:27:36.919Z,21.62
2017-05-16T09:28:38.777Z,21.50
2017-05-16T09:29:40.631Z,21.35
2017-05-16T09:30:42.489Z,21.43
2017-05-16T09:31:44.411Z,21.47
2017-05-16T09:32:46.243Z,21.50
2017-05-16T09:33:48.096Z,21.47
2017-05-16T09:34:49.924Z,21.67
2017-05-16T09:35:51.774Z,21.83
2017-05-16T09:36:54.011Z,22.14
2017-05-16T09:37:55.863Z,22.27
2017-05-16T09:38:57.700Z,22.33
2017-05-16T09:39:59.522Z,22.45
2017-05-16T09:41:01.359Z,22.43
2017-05-16T09:42:03.416Z,22.54
2017-05-16T09:43:05.271Z,22.40
2017-05-16T09:44:07.125Z,22.33
2017-05-16T09:45:08.984Z,22.25
2017-05-16T09:46:10.834Z,22.33
2017-05-16T09:47:12.712Z,22.30
2017-05-16T09:48:14.537Z,22.39
2017-05-16T09:49:16.365Z,22.52
2017-05-16T09:50:18.195Z,22.57
2017-05-16T09:51:20.034Z,22.54
2017-05-16T09:52:21.990Z,22.60
2017-05-16T09:53:23.849Z,22.47
2017-05-16T09:54:25.700Z,22.45
2017-05-16T09:55:27.554Z,22.36
2017-05-16T09:56:29.389Z,22.20
2017-05-16T09:57:31.448Z,22.15
2017-05-16T09:58:33.298Z,22.05
2017-05-16T09:59:35.157Z,22.02
2017-05-16T10:00:37.012Z,22.14
2017-05-16T10:01:38.862Z,22.27
2017-05-16T10:02:40.715Z,22.28
2017-05-16T10:03:42.549Z,22.37
2017-05-16T10:04:44.401Z,22.45
2017-05-16T10:05:46.235Z,22.57
2017-05-16T10:06:48.064Z,22.58
2017-05-16T10:07:49.945Z,22.68
2017-05-16T10:08:51.777Z,22.80
2017-05-16T10:09:53.605Z,22.83
2017-05-16T10:10:55.434Z,23.04
2017-05-16T10:11:57.291Z,23.10
2017-05-16T10:12:59.222Z,23.33
2017-05-16T10:14:01.071Z,23.38
2017-05-16T10:15:02.904Z,23.48
2017-05-16T10:16:04.761Z,23.28
2017-05-16T10:17:06.623Z,23.02
2017-05-16T10:18:08.677Z,23.01
2017-05-16T10:19:10.531Z,22.83
2017-05-16T10:20:12.397Z,22.67
2017-05-16T10:21:14.221Z,22.57
2017-05-16T10:22:16.075Z,22.45
2017-05-16T10:23:17.932Z,22.40
2017-05-16T10:24:19.762Z,22.36
2017-05-16T10:25:21.596Z,22.30
2017-05-16T10:26:23.450Z,22.27
2017-05-16T10:27:25.313Z,22.46
2017-05-16T10:28:27.194Z,22.47
2017-05-16T10:29:29.045Z,22.31
2017-05-16T10:30:30.905Z,22.33
2017-05-16T10:31:32.755Z,22.27
2017-05-16T10:32:34.614Z,22.33
2017-05-16T10:33:36.543Z,22.39
2017-05-16T10:34:38.398Z,22.47
2017-05-16T10:36:16.655Z,22.40
2017-05-16T10:37:18.482Z,22.55
2017-05-16T10:38:20.342Z,22.76
2017-05-16T10:39:22.498Z,22.77
2017-05-16T10:40:24.354Z,22.85
2017-05-16T10:41:26.212Z,23.04
2017-05-16T10:42:28.072Z,23.17
2017-05-16T10:43:29.929Z,23.32
2017-05-16T10:44:31.811Z,23.38
2017-05-16T10:45:33.664Z,23.36
2017-05-16T10:46:35.498Z,23.39
2017-05-16T10:47:37.357Z,23.42
2017-05-16T10:48:39.212Z,23.36
2017-05-16T10:49:41.068Z,23.48
2017-05-16T10:50:42.922Z,23.39
2017-05-16T10:51:44.777Z,23.35
2017-05-16T10:52:46.632Z,23.32
2017-05-16T10:53:48.469Z,23.38
2017-05-16T10:54:53.436Z,23.17
2017-05-16T10:55:55.282Z,23.01
2017-05-16T10:56:57.116Z,22.88
2017-05-16T10:57:58.979Z,22.88
2017-05-16T10:59:00.829Z,22.82
2017-05-16T11:00:02.856Z,22.77
2017-05-16T11:01:04.720Z,22.86
2017-05-16T11:02:06.581Z,22.82
2017-05-16T11:03:08.434Z,22.86
2017-05-16T11:04:10.290Z,23.04
2017-05-16T11:05:12.148Z,23.25
2017-05-16T11:06:13.972Z,23.25
2017-05-16T11:07:15.803Z,23.25
2017-05-16T11:08:17.631Z,23.22
2017-05-16T11:09:19.462Z,23.17
2017-05-16T11:10:21.492Z,23.23
2017-05-16T11:11:23.354Z,23.31
2017-05-16T11:12:25.182Z,23.50
2017-05-16T11:13:27.043Z,23.66
2017-05-16T11:14:28.874Z,23.70
2017-05-16T11:15:30.928Z,23.80
2017-05-16T11:16:32.759Z,24.02
2017-05-16T11:17:34.612Z,24.12
2017-05-16T11:18:36.445Z,24.16
2017-05-16T11:19:38.281Z,24.21
2017-05-16T11:20:40.137Z,24.32
2017-05-16T11:21:41.970Z,24.31
2017-05-16T11:22:43.823Z,24.20
2017-05-16T11:23:45.654Z,24.02
2017-05-16T11:24:47.519Z,23.88
2017-05-16T11:25:49.475Z,23.93
2017-05-16T11:26:51.328Z,23.91
2017-05-16T11:27:53.185Z,23.87
2017-05-16T11:28:55.040Z,23.61
2017-05-16T11:29:56.873Z,23.43
2017-05-16T11:30:58.725Z,23.39
2017-05-16T11:32:00.563Z,23.38
2017-05-16T11:33:02.395Z,23.19
2017-05-16T11:34:04.242Z,23.01
2017-05-16T11:35:06.075Z,22.77
2017-05-16T11:36:08.333Z,22.68
2017-05-16T11:37:10.189Z,22.60
2017-05-16T11:38:12.046Z,22.58
2017-05-16T11:39:13.909Z,22.67
2017-05-16T11:40:15.760Z,22.76
2017-05-16T11:41:17.642Z,22.70
2017-05-16T11:42:19.467Z,22.68
2017-05-16T11:43:21.304Z,22.54
2017-05-16T11:44:23.156Z,22.65
2017-05-16T11:45:25.019Z,22.62
2017-05-16T11:46:26.869Z,22.79
2017-05-16T11:47:28.728Z,22.73
2017-05-16T11:48:30.583Z,22.77
2017-05-16T11:49:32.438Z,22.62
2017-05-16T11:50:34.298Z,22.49
2017-05-16T11:51:36.253Z,22.40
2017-05-16T11:52:38.077Z,22.58
2017-05-16T11:53:39.906Z,22.65
2017-05-16T11:54:41.738Z,22.67
2017-05-16T11:55:43.593Z,22.62
2017-05-16T11:56:45.450Z,22.57
2017-05-16T11:57:47.297Z,22.54
2017-05-16T11:58:49.129Z,22.55
2017-05-16T11:59:50.983Z,22.55
2017-05-16T12:00:52.814Z,22.43
2017-05-16T12:01:54.693Z,22.35
2017-05-16T12:02:56.553Z,22.27
2017-05-16T12:03:58.383Z,22.25
2017-05-16T12:05:00.235Z,22.21
2017-05-16T12:06:02.061Z,22.37
2017-05-16T12:07:04.013Z,22.43
2017-05-16T12:08:05.851Z,22.52
2017-05-16T12:09:07.705Z,22.77
2017-05-16T12:10:09.561Z,23.09
2017-05-16T12:11:11.424Z,23.32
2017-05-16T12:12:13.280Z,23.38
2017-05-16T12:13:15.137Z,23.42
2017-05-16T12:14:16.969Z,23.43
2017-05-16T12:15:18.826Z,23.48
2017-05-16T12:16:20.686Z,23.65
2017-05-16T12:17:22.737Z,23.72
2017-05-16T12:18:24.680Z,23.75
2017-05-16T12:19:26.579Z,23.75
2017-05-16T12:20:28.433Z,23.65
2017-05-16T12:21:30.266Z,23.57
2017-05-16T12:22:32.148Z,23.39
2017-05-16T12:23:34.007Z,23.36
2017-05-16T12:24:35.853Z,23.17
2017-05-16T12:25:37.689Z,22.98
2017-05-16T12:26:39.546Z,23.04
2017-05-16T12:27:41.401Z,22.94
2017-05-16T12:28:43.263Z,23.02
2017-05-16T12:29:45.087Z,23.15
2017-05-16T12:30:46.995Z,23.20
2017-05-16T12:31:48.884Z,23.36
2017-05-16T12:32:50.741Z,23.42
2017-05-16T12:33:52.601Z,23.35
2017-05-16T12:34:54.454Z,23.33
2017-05-16T12:35:56.341Z,23.27
2017-05-16T12:36:58.200Z,23.38
2017-05-16T12:38:00.242Z,23.54
2017-05-16T12:39:02.118Z,23.51
2017-05-16T12:40:03.977Z,23.65
2017-05-16T12:41:05.843Z,23.58
2017-05-16T12:42:07.691Z,23.58
2017-05-16T12:43:09.542Z,23.54
2017-05-16T12:44:11.379Z,23.50
2017-05-16T12:45:13.270Z,23.55
2017-05-16T12:46:15.170Z,23.63
2017-05-16T12:47:17.030Z,23.63
2017-05-16T12:48:18.909Z,23.51
2017-05-16T12:49:20.777Z,23.51
2017-05-16T12:50:22.626Z,23.54
2017-05-16T12:51:24.836Z,23.60
2017-05-16T12:52:26.663Z,23.58
2017-05-16T12:53:28.724Z,23.53
2017-05-16T12:54:30.555Z,23.61
2017-05-16T12:55:32.412Z,23.70
2017-05-16T12:56:34.245Z,23.85
2017-05-16T12:57:36.080Z,24.02
2017-05-16T12:58:37.932Z,24.15
2017-05-16T12:59:39.762Z,24.22
2017-05-16T13:00:41.605Z,24.37
2017-05-16T13:01:43.462Z,24.21
2017-05-16T13:02:45.323Z,24.24
2017-05-16T13:03:47.173Z,24.16
2017-05-16T13:04:49.029Z,24.09
2017-05-16T13:05:50.867Z,23.97
2017-05-16T13:06:52.730Z,23.75
2017-05-16T13:07:54.584Z,23.73
2017-05-16T13:08:56.644Z,23.75
2017-05-16T13:09:58.506Z,23.78
2017-05-16T13:11:00.353Z,23.66
2017-05-16T13:12:02.215Z,23.55
2017-05-16T13:13:04.069Z,23.48
2017-05-16T13:14:05.899Z,23.54
2017-05-16T13:15:07.736Z,23.65
2017-05-16T13:16:09.596Z,23.78
2017-05-16T13:17:11.423Z,23.90